^^
Station Historical Data
Daily Summary for February 15, 2018 Units:  Metric    English   Both
« Previous Day
Next Day »
Daily Weekly Monthly Yearly Custom
  High: Low: Average:
Temperature: -17.8 °C 22.5 °C 27.4 °C
Dew Point: -17.8 °C 3.1 °C 9.1 °C
Humidity: Humidity% 15% 34%
Wind Speed: 0km/h 0km/h 10.8km/h
Wind Gust: 0km/h - -
Wind- - SSW
Pressure: 0 hPa 1002.9 hPa -
Precipitation: 0 mm    
Historical Graphs
 
 
Tabular Data for February 15, 2018
Time Temperature Dew Point Pressure Wind Wind Speed Wind Gust Humidity Rainfall Rate (Hourly) solar Conditions
-17.8 °C -17.8 °C 0 hPa Calm     Humidity% 0 mm SolarRadiationWatts/m^2 W/m2 Conditions
00:13 23.4 °C 13.8 °C 1007 hPa South 13 km/h 17.7 km/h 55% 0 mm 0.0 W/m2
00:29 23.2 °C 14.2 °C 1007 hPa South 13 km/h 14.5 km/h 57% 0 mm 0.0 W/m2
00:44 22.7 °C 14.5 °C 1007 hPa South 6.4 km/h 8 km/h 60% 0 mm 0.0 W/m2
00:51 22.6 °C 14.7 °C 1007.3 hPa South 4.7 km/h 4.8 km/h 61% 0 mm 0.0 W/m2
01:00 22.5 °C 14.6 °C 1007 hPa South 6.4 km/h 9.7 km/h 61% 0 mm 0.0 W/m2
10:36 26.6 °C 13.3 °C 1006 hPa South 9.7 km/h 16.1 km/h 44% 0 mm 784.0 W/m2
10:57 26.8 °C 13.5 °C 1006 hPa South 7.9 km/h 12.9 km/h 44% 0 mm 821.0 W/m2
11:07 27.1 °C 13.4 °C 1006 hPa Calm   8 km/h 43% 0 mm 856.0 W/m2
11:28 27.8 °C 13.7 °C 1005.6 hPa Calm     42% 0 mm 889.0 W/m2
11:37 28 °C 12.4 °C 1005.6 hPa Calm     38% 0 mm 916.0 W/m2
11:58 28.6 °C 12.1 °C 1005.6 hPa Calm     36% 0 mm 940.0 W/m2
12:08 29.1 °C 10.2 °C 1005.3 hPa Calm     31% 0 mm 956.0 W/m2
12:29 29.2 °C 8.8 °C 1005.3 hPa Calm     28% 0 mm 974.0 W/m2
12:39 29.6 °C 8.6 °C 1005 hPa Calm     27% 0 mm 979.0 W/m2
12:54 29.9 °C 8.9 °C 1005 hPa Calm     27% 0 mm 974.0 W/m2
13:17 30.4 °C 9.8 °C 1004.6 hPa Calm     28% 0 mm 977.0 W/m2
13:30 30.8 °C 5.2 °C 1004.6 hPa Calm     20% 0 mm 969.0 W/m2
13:57 31.5 °C 7.9 °C 1004.3 hPa South 1.4 km/h 16.1 km/h 23% 0 mm 960.0 W/m2
14:05 31.2 °C 8.8 °C 1004.3 hPa South 13 km/h 16.1 km/h 25% 0 mm 939.0 W/m2
14:21 31.4 °C 9.6 °C 1004.3 hPa Calm     26% 0 mm 921.0 W/m2
14:27 31.4 °C 9.6 °C 1004.3 hPa Calm     26% 0 mm 921.0 W/m2
14:36 31.6 °C 8.6 °C 1003.9 hPa Calm     24% 0 mm 893.0 W/m2
14:51 31.8 °C 7.5 °C 1003.6 hPa Calm     22% 0 mm 865.0 W/m2
15:07 31.8 °C 8.1 °C 1003.6 hPa Calm     23% 0 mm 831.0 W/m2
15:12 31.8 °C 8.1 °C 1003.6 hPa Calm     23% 0 mm 831.0 W/m2
15:28 32.2 °C 7.8 °C 1003.6 hPa Calm   8 km/h 22% 0 mm 803.0 W/m2
15:42 32.4 °C 6.6 °C 1003.3 hPa South 13 km/h 13 km/h 20% 0 mm 768.0 W/m2
15:52 32.6 °C 6.7 °C 1003.3 hPa South 9.7 km/h 16.1 km/h 20% 0 mm 729.0 W/m2
16:08 32.8 °C 5.4 °C 1002.9 hPa SSW 6.4 km/h 12.9 km/h 18% 0 mm 686.0 W/m2
16:18 32.8 °C 6.1 °C 1002.9 hPa SSW 16.3 km/h 19.3 km/h 19% 0 mm 650.0 W/m2
16:33 32.9 °C 5.4 °C 1002.9 hPa SSW 6.4 km/h 14.5 km/h 18% 0 mm 603.0 W/m2
16:54 32.9 °C 4.6 °C 1002.9 hPa SSW 14.3 km/h 20.9 km/h 17% 0 mm 550.0 W/m2
17:09 33.1 °C 3.9 °C 1002.9 hPa SW 13 km/h 20.9 km/h 16% 0 mm 503.0 W/m2
17:24 33.2 °C 4 °C 1002.9 hPa SW 7.9 km/h 14.5 km/h 16% 0 mm 450.0 W/m2
17:40 33.2 °C 3.1 °C 1002.9 hPa SSW 13 km/h 13 km/h 15% 0 mm 394.0 W/m2
17:52 32.8 °C 3.7 °C 1002.9 hPa SSW 14.3 km/h 16.1 km/h 16% 0 mm 334.0 W/m2
18:01 32.6 °C 4.4 °C 1002.9 hPa SSW 6.4 km/h 11.3 km/h 17% 0 mm 295.0 W/m2
18:06 32.6 °C 5.2 °C 1002.9 hPa SSW 17.7 km/h 17.7 km/h 18% 0 mm 278.0 W/m2
18:14 32.7 °C 4.5 °C 1002.9 hPa SSW 9.7 km/h 14.5 km/h 17% 0 mm 237.0 W/m2
21:56 25 °C 11.6 °C 1006 hPa SSW 25.9 km/h 32.2 km/h 43% 0 mm 0.0 W/m2
22:10 24.8 °C 12.1 °C 1006 hPa SSW 22.7 km/h 30.6 km/h 45% 0 mm 0.0 W/m2
22:20 24.7 °C 12.3 °C 1006.3 hPa SSW 20.9 km/h 32.2 km/h 46% 0 mm 0.0 W/m2
22:29 24.5 °C 12.1 °C 1006.3 hPa SSW 24.1 km/h 35.4 km/h 46% 0 mm 0.0 W/m2
22:37 24.4 °C 11 °C 1006.3 hPa South 32 km/h 35.4 km/h 43% 0 mm 0.0 W/m2
22:42 24.3 °C 11.6 °C 1006.7 hPa South 30.6 km/h 35.4 km/h 45% 0 mm 0.0 W/m2
22:52 24.2 °C 11.5 °C 1006.7 hPa SSW 27.4 km/h 30.6 km/h 45% 0 mm 0.0 W/m2
22:57 24.1 °C 11.4 °C 1006.7 hPa South 27.4 km/h 29 km/h 45% 0 mm 0.0 W/m2
23:02 24 °C 11.7 °C 1006.7 hPa SSW 17.7 km/h 29 km/h 46% 0 mm 0.0 W/m2
23:07 23.9 °C 11.6 °C 1006.7 hPa SSW 20.9 km/h 29 km/h 46% 0 mm 0.0 W/m2
23:12 23.8 °C 11.8 °C 1006.7 hPa South 22.7 km/h 25.7 km/h 47% 0 mm 0.0 W/m2
23:22 23.7 °C 11.4 °C 1006.7 hPa South 22.7 km/h 27.4 km/h 46% 0 mm 0.0 W/m2
23:27 23.7 °C 11.1 °C 1006.7 hPa SSW 20.9 km/h 29 km/h 45% 0 mm 0.0 W/m2
23:32 23.6 °C 10.6 °C 1006.7 hPa SSW 22.7 km/h 27.4 km/h 44% 0 mm 0.0 W/m2
23:42 23.6 °C 10.6 °C 1007 hPa SSW 17.7 km/h 24.1 km/h 44% 0 mm 0.0 W/m2
23:52 23.4 °C 10.5 °C 1007 hPa SSW 19.5 km/h 27.4 km/h 44% 0 mm 0.0 W/m2
23:57 23.4 °C 10.5 °C 1007 hPa SSW 17.7 km/h 29 km/h 44% 0 mm 0.0 W/m2
Canyon Roadhouse, Fishriver Canyon, Namibia
Compliments of Weather Underground - 1.75 mb